sensor_id;sensor_type;location;lat;lon;timestamp;P1;durP1;ratioP1;P2;durP2;ratioP2
11386;SDS011;5748;53.102;8.456;2023-04-06T00:02:05;2.30;;;2.10;;
11386;SDS011;5748;53.102;8.456;2023-04-06T00:04:32;2.57;;;2.27;;
11386;SDS011;5748;53.102;8.456;2023-04-06T00:07:01;2.10;;;1.90;;
11386;SDS011;5748;53.102;8.456;2023-04-06T00:09:28;2.40;;;2.20;;
11386;SDS011;5748;53.102;8.456;2023-04-06T00:11:55;2.40;;;2.20;;
11386;SDS011;5748;53.102;8.456;2023-04-06T00:17:08;2.23;;;2.03;;
11386;SDS011;5748;53.102;8.456;2023-04-06T00:19:35;2.40;;;2.20;;
11386;SDS011;5748;53.102;8.456;2023-04-06T00:22:04;2.50;;;2.30;;
11386;SDS011;5748;53.102;8.456;2023-04-06T00:24:31;1.97;;;1.87;;
11386;SDS011;5748;53.102;8.456;2023-04-06T00:26:58;2.00;;;1.80;;
11386;SDS011;5748;53.102;8.456;2023-04-06T00:29:25;2.50;;;2.30;;
11386;SDS011;5748;53.102;8.456;2023-04-06T00:31:52;2.17;;;1.97;;
11386;SDS011;5748;53.102;8.456;2023-04-06T00:34:19;2.30;;;2.10;;
11386;SDS011;5748;53.102;8.456;2023-04-06T00:36:46;2.70;;;2.23;;
11386;SDS011;5748;53.102;8.456;2023-04-06T00:39:14;2.63;;;2.43;;
11386;SDS011;5748;53.102;8.456;2023-04-06T00:41:42;2.73;;;2.03;;
11386;SDS011;5748;53.102;8.456;2023-04-06T00:44:15;2.17;;;1.97;;
11386;SDS011;5748;53.102;8.456;2023-04-06T00:46:49;2.30;;;2.10;;
11386;SDS011;5748;53.102;8.456;2023-04-06T00:49:16;2.17;;;1.97;;
11386;SDS011;5748;53.102;8.456;2023-04-06T00:51:43;2.20;;;2.00;;
11386;SDS011;5748;53.102;8.456;2023-04-06T00:54:10;2.43;;;2.17;;
11386;SDS011;5748;53.102;8.456;2023-04-06T00:56:38;2.27;;;2.00;;
11386;SDS011;5748;53.102;8.456;2023-04-06T00:59:05;2.50;;;2.30;;
11386;SDS011;5748;53.102;8.456;2023-04-06T01:01:32;2.30;;;2.10;;
11386;SDS011;5748;53.102;8.456;2023-04-06T01:03:59;2.13;;;1.93;;
11386;SDS011;5748;53.102;8.456;2023-04-06T01:06:27;2.30;;;2.10;;
11386;SDS011;5748;53.102;8.456;2023-04-06T01:08:55;2.50;;;2.13;;
11386;SDS011;5748;53.102;8.456;2023-04-06T01:11:22;2.53;;;2.33;;
11386;SDS011;5748;53.102;8.456;2023-04-06T01:13:50;2.30;;;2.10;;
11386;SDS011;5748;53.102;8.456;2023-04-06T01:16:36;2.30;;;2.10;;
11386;SDS011;5748;53.102;8.456;2023-04-06T01:19:06;2.43;;;2.03;;
11386;SDS011;5748;53.102;8.456;2023-04-06T01:21:35;2.60;;;2.40;;
11386;SDS011;5748;53.102;8.456;2023-04-06T01:24:03;2.47;;;2.27;;
11386;SDS011;5748;53.102;8.456;2023-04-06T01:26:32;2.70;;;2.37;;
11386;SDS011;5748;53.102;8.456;2023-04-06T01:29:00;2.53;;;2.27;;
11386;SDS011;5748;53.102;8.456;2023-04-06T01:31:28;2.40;;;2.20;;
11386;SDS011;5748;53.102;8.456;2023-04-06T01:33:56;2.40;;;2.20;;
11386;SDS011;5748;53.102;8.456;2023-04-06T01:36:23;2.20;;;2.00;;
11386;SDS011;5748;53.102;8.456;2023-04-06T01:38:50;2.60;;;2.40;;
11386;SDS011;5748;53.102;8.456;2023-04-06T01:41:18;3.03;;;2.67;;
11386;SDS011;5748;53.102;8.456;2023-04-06T01:43:46;2.60;;;2.30;;
11386;SDS011;5748;53.102;8.456;2023-04-06T01:46:14;2.57;;;2.37;;
11386;SDS011;5748;53.102;8.456;2023-04-06T01:48:41;2.40;;;2.20;;
11386;SDS011;5748;53.102;8.456;2023-04-06T01:51:08;2.50;;;2.17;;
11386;SDS011;5748;53.102;8.456;2023-04-06T01:53:35;2.77;;;2.30;;
11386;SDS011;5748;53.102;8.456;2023-04-06T01:56:02;2.73;;;2.53;;
11386;SDS011;5748;53.102;8.456;2023-04-06T01:58:31;2.87;;;2.67;;
11386;SDS011;5748;53.102;8.456;2023-04-06T02:00:58;2.87;;;2.60;;
11386;SDS011;5748;53.102;8.456;2023-04-06T02:03:26;2.83;;;2.63;;
11386;SDS011;5748;53.102;8.456;2023-04-06T02:05:53;2.80;;;2.50;;
11386;SDS011;5748;53.102;8.456;2023-04-06T02:08:20;3.07;;;2.77;;
11386;SDS011;5748;53.102;8.456;2023-04-06T02:13:19;3.10;;;2.70;;
11386;SDS011;5748;53.102;8.456;2023-04-06T02:15:47;2.90;;;2.70;;
11386;SDS011;5748;53.102;8.456;2023-04-06T02:18:14;3.27;;;2.97;;
11386;SDS011;5748;53.102;8.456;2023-04-06T02:20:42;3.47;;;3.13;;
11386;SDS011;5748;53.102;8.456;2023-04-06T02:23:09;3.20;;;2.90;;
11386;SDS011;5748;53.102;8.456;2023-04-06T02:25:37;3.27;;;2.90;;
11386;SDS011;5748;53.102;8.456;2023-04-06T02:28:04;3.60;;;3.27;;
11386;SDS011;5748;53.102;8.456;2023-04-06T02:30:31;3.27;;;2.97;;
11386;SDS011;5748;53.102;8.456;2023-04-06T02:32:59;3.30;;;3.00;;
11386;SDS011;5748;53.102;8.456;2023-04-06T02:35:27;3.10;;;2.80;;
11386;SDS011;5748;53.102;8.456;2023-04-06T02:37:55;3.10;;;2.80;;
11386;SDS011;5748;53.102;8.456;2023-04-06T02:40:22;3.00;;;2.57;;
11386;SDS011;5748;53.102;8.456;2023-04-06T02:42:49;2.77;;;2.57;;
11386;SDS011;5748;53.102;8.456;2023-04-06T02:45:16;2.60;;;2.40;;
11386;SDS011;5748;53.102;8.456;2023-04-06T02:47:43;2.93;;;2.63;;
11386;SDS011;5748;53.102;8.456;2023-04-06T02:50:12;3.00;;;2.70;;
11386;SDS011;5748;53.102;8.456;2023-04-06T02:52:39;2.87;;;2.67;;
11386;SDS011;5748;53.102;8.456;2023-04-06T02:55:06;3.27;;;2.97;;
11386;SDS011;5748;53.102;8.456;2023-04-06T02:57:34;3.20;;;2.77;;
11386;SDS011;5748;53.102;8.456;2023-04-06T03:00:01;3.20;;;2.90;;
11386;SDS011;5748;53.102;8.456;2023-04-06T03:02:28;2.90;;;2.60;;
11386;SDS011;5748;53.102;8.456;2023-04-06T03:04:55;3.70;;;3.07;;
11386;SDS011;5748;53.102;8.456;2023-04-06T03:07:24;3.60;;;3.23;;
11386;SDS011;5748;53.102;8.456;2023-04-06T03:09:51;3.27;;;2.87;;
11386;SDS011;5748;53.102;8.456;2023-04-06T03:12:18;3.70;;;3.30;;
11386;SDS011;5748;53.102;8.456;2023-04-06T03:14:45;3.30;;;3.00;;
11386;SDS011;5748;53.102;8.456;2023-04-06T03:20:09;3.27;;;2.93;;
11386;SDS011;5748;53.102;8.456;2023-04-06T03:22:38;3.40;;;3.10;;
11386;SDS011;5748;53.102;8.456;2023-04-06T03:25:05;3.20;;;2.90;;
11386;SDS011;5748;53.102;8.456;2023-04-06T03:27:33;3.20;;;2.90;;
11386;SDS011;5748;53.102;8.456;2023-04-06T03:30:00;3.23;;;2.93;;
11386;SDS011;5748;53.102;8.456;2023-04-06T03:32:27;3.67;;;3.17;;
11386;SDS011;5748;53.102;8.456;2023-04-06T03:34:54;3.47;;;3.17;;
11386;SDS011;5748;53.102;8.456;2023-04-06T03:37:21;3.73;;;3.40;;
11386;SDS011;5748;53.102;8.456;2023-04-06T03:39:50;3.87;;;3.30;;
11386;SDS011;5748;53.102;8.456;2023-04-06T03:42:18;3.70;;;3.40;;
11386;SDS011;5748;53.102;8.456;2023-04-06T03:44:45;3.30;;;2.80;;
11386;SDS011;5748;53.102;8.456;2023-04-06T03:47:12;3.53;;;3.23;;
11386;SDS011;5748;53.102;8.456;2023-04-06T03:49:51;3.40;;;3.10;;
11386;SDS011;5748;53.102;8.456;2023-04-06T03:52:18;3.53;;;3.10;;
11386;SDS011;5748;53.102;8.456;2023-04-06T03:54:47;3.67;;;3.30;;
11386;SDS011;5748;53.102;8.456;2023-04-06T03:57:16;3.40;;;3.10;;
11386;SDS011;5748;53.102;8.456;2023-04-06T03:59:43;3.43;;;3.03;;
11386;SDS011;5748;53.102;8.456;2023-04-06T04:02:10;3.47;;;3.17;;
11386;SDS011;5748;53.102;8.456;2023-04-06T04:04:37;3.73;;;3.33;;
11386;SDS011;5748;53.102;8.456;2023-04-06T04:07:04;3.20;;;2.90;;
11386;SDS011;5748;53.102;8.456;2023-04-06T04:09:31;3.87;;;3.47;;
11386;SDS011;5748;53.102;8.456;2023-04-06T04:12:00;3.73;;;3.40;;
11386;SDS011;5748;53.102;8.456;2023-04-06T04:14:27;3.40;;;3.10;;
11386;SDS011;5748;53.102;8.456;2023-04-06T04:16:54;3.33;;;3.03;;
11386;SDS011;5748;53.102;8.456;2023-04-06T04:19:21;3.47;;;3.10;;
11386;SDS011;5748;53.102;8.456;2023-04-06T04:21:48;3.30;;;3.00;;
11386;SDS011;5748;53.102;8.456;2023-04-06T04:24:21;3.30;;;3.00;;
11386;SDS011;5748;53.102;8.456;2023-04-06T04:26:48;3.37;;;3.07;;
11386;SDS011;5748;53.102;8.456;2023-04-06T04:29:16;3.47;;;3.03;;
11386;SDS011;5748;53.102;8.456;2023-04-06T04:31:46;3.50;;;3.20;;
11386;SDS011;5748;53.102;8.456;2023-04-06T04:34:13;5.40;;;4.90;;
11386;SDS011;5748;53.102;8.456;2023-04-06T04:36:41;5.27;;;4.57;;
11386;SDS011;5748;53.102;8.456;2023-04-06T04:39:08;4.30;;;3.90;;
11386;SDS011;5748;53.102;8.456;2023-04-06T04:41:35;3.73;;;3.37;;
11386;SDS011;5748;53.102;8.456;2023-04-06T04:44:03;3.77;;;3.37;;
11386;SDS011;5748;53.102;8.456;2023-04-06T04:46:31;3.43;;;3.13;;
11386;SDS011;5748;53.102;8.456;2023-04-06T04:48:58;3.30;;;3.00;;
11386;SDS011;5748;53.102;8.456;2023-04-06T04:51:25;3.30;;;3.00;;
11386;SDS011;5748;53.102;8.456;2023-04-06T04:54:02;3.23;;;2.93;;
11386;SDS011;5748;53.102;8.456;2023-04-06T04:56:29;3.27;;;2.97;;
11386;SDS011;5748;53.102;8.456;2023-04-06T04:58:56;3.10;;;2.70;;
11386;SDS011;5748;53.102;8.456;2023-04-06T05:01:23;3.37;;;3.07;;
11386;SDS011;5748;53.102;8.456;2023-04-06T05:03:51;3.27;;;2.97;;
11386;SDS011;5748;53.102;8.456;2023-04-06T05:06:18;3.53;;;3.23;;
11386;SDS011;5748;53.102;8.456;2023-04-06T05:08:45;3.70;;;3.40;;
11386;SDS011;5748;53.102;8.456;2023-04-06T05:11:15;3.90;;;3.50;;
11386;SDS011;5748;53.102;8.456;2023-04-06T05:13:42;3.57;;;3.20;;
11386;SDS011;5748;53.102;8.456;2023-04-06T05:16:10;3.77;;;3.43;;
11386;SDS011;5748;53.102;8.456;2023-04-06T05:18:37;5.23;;;3.13;;
11386;SDS011;5748;53.102;8.456;2023-04-06T05:21:06;3.80;;;3.30;;
11386;SDS011;5748;53.102;8.456;2023-04-06T05:23:33;3.43;;;3.13;;
11386;SDS011;5748;53.102;8.456;2023-04-06T05:26:00;3.33;;;3.03;;
11386;SDS011;5748;53.102;8.456;2023-04-06T05:28:27;3.47;;;3.17;;
11386;SDS011;5748;53.102;8.456;2023-04-06T05:30:54;3.43;;;3.10;;
11386;SDS011;5748;53.102;8.456;2023-04-06T05:33:21;3.80;;;3.40;;
11386;SDS011;5748;53.102;8.456;2023-04-06T05:35:49;3.67;;;3.27;;
11386;SDS011;5748;53.102;8.456;2023-04-06T05:38:17;3.50;;;3.20;;
11386;SDS011;5748;53.102;8.456;2023-04-06T05:40:44;3.97;;;3.60;;
11386;SDS011;5748;53.102;8.456;2023-04-06T05:43:12;5.03;;;3.73;;
11386;SDS011;5748;53.102;8.456;2023-04-06T05:45:39;4.87;;;3.97;;
11386;SDS011;5748;53.102;8.456;2023-04-06T05:48:06;4.47;;;3.80;;
11386;SDS011;5748;53.102;8.456;2023-04-06T05:50:33;4.27;;;3.87;;
11386;SDS011;5748;53.102;8.456;2023-04-06T05:53:00;4.23;;;3.77;;
11386;SDS011;5748;53.102;8.456;2023-04-06T05:55:28;3.77;;;3.47;;
11386;SDS011;5748;53.102;8.456;2023-04-06T05:57:56;4.00;;;3.60;;
11386;SDS011;5748;53.102;8.456;2023-04-06T06:00:23;4.47;;;4.07;;
11386;SDS011;5748;53.102;8.456;2023-04-06T06:02:51;4.03;;;3.63;;
11386;SDS011;5748;53.102;8.456;2023-04-06T06:05:18;3.17;;;2.87;;
11386;SDS011;5748;53.102;8.456;2023-04-06T06:07:45;3.73;;;3.43;;
11386;SDS011;5748;53.102;8.456;2023-04-06T06:10:12;3.47;;;3.17;;
11386;SDS011;5748;53.102;8.456;2023-04-06T06:12:41;4.23;;;3.73;;
11386;SDS011;5748;53.102;8.456;2023-04-06T06:15:08;4.60;;;4.20;;
11386;SDS011;5748;53.102;8.456;2023-04-06T06:17:36;4.30;;;3.90;;
11386;SDS011;5748;53.102;8.456;2023-04-06T06:20:10;4.60;;;3.83;;
11386;SDS011;5748;53.102;8.456;2023-04-06T06:22:40;4.10;;;3.70;;
11386;SDS011;5748;53.102;8.456;2023-04-06T06:25:07;4.57;;;4.17;;
11386;SDS011;5748;53.102;8.456;2023-04-06T06:27:34;5.00;;;4.50;;
11386;SDS011;5748;53.102;8.456;2023-04-06T06:30:04;4.30;;;3.90;;
11386;SDS011;5748;53.102;8.456;2023-04-06T06:32:32;3.67;;;3.30;;
11386;SDS011;5748;53.102;8.456;2023-04-06T06:34:59;4.13;;;3.73;;
11386;SDS011;5748;53.102;8.456;2023-04-06T06:37:26;4.30;;;3.90;;
11386;SDS011;5748;53.102;8.456;2023-04-06T06:42:41;4.37;;;3.97;;
11386;SDS011;5748;53.102;8.456;2023-04-06T06:45:11;4.30;;;3.90;;
11386;SDS011;5748;53.102;8.456;2023-04-06T06:47:38;3.87;;;3.57;;
11386;SDS011;5748;53.102;8.456;2023-04-06T06:50:06;4.47;;;4.07;;
11386;SDS011;5748;53.102;8.456;2023-04-06T06:52:34;4.40;;;4.00;;
11386;SDS011;5748;53.102;8.456;2023-04-06T06:55:01;4.60;;;3.97;;
11386;SDS011;5748;53.102;8.456;2023-04-06T06:57:28;4.17;;;3.77;;
11386;SDS011;5748;53.102;8.456;2023-04-06T06:59:55;4.40;;;4.00;;
11386;SDS011;5748;53.102;8.456;2023-04-06T07:02:26;3.80;;;3.40;;
11386;SDS011;5748;53.102;8.456;2023-04-06T07:04:54;4.77;;;4.27;;
11386;SDS011;5748;53.102;8.456;2023-04-06T07:07:21;4.60;;;4.20;;
11386;SDS011;5748;53.102;8.456;2023-04-06T07:09:48;4.20;;;3.90;;
11386;SDS011;5748;53.102;8.456;2023-04-06T07:12:15;4.47;;;4.07;;
11386;SDS011;5748;53.102;8.456;2023-04-06T07:14:42;4.37;;;3.97;;
11386;SDS011;5748;53.102;8.456;2023-04-06T07:17:09;4.50;;;4.10;;
11386;SDS011;5748;53.102;8.456;2023-04-06T07:19:38;3.97;;;3.53;;
11386;SDS011;5748;53.102;8.456;2023-04-06T07:22:05;4.17;;;3.80;;
11386;SDS011;5748;53.102;8.456;2023-04-06T07:24:32;4.47;;;4.07;;
11386;SDS011;5748;53.102;8.456;2023-04-06T07:27:00;4.07;;;3.57;;
11386;SDS011;5748;53.102;8.456;2023-04-06T07:29:27;4.10;;;3.70;;
11386;SDS011;5748;53.102;8.456;2023-04-06T07:31:54;4.07;;;3.70;;
11386;SDS011;5748;53.102;8.456;2023-04-06T07:34:21;3.70;;;3.40;;
11386;SDS011;5748;53.102;8.456;2023-04-06T07:36:50;3.53;;;3.23;;
11386;SDS011;5748;53.102;8.456;2023-04-06T07:39:18;3.90;;;3.53;;
11386;SDS011;5748;53.102;8.456;2023-04-06T07:41:46;3.60;;;3.30;;
11386;SDS011;5748;53.102;8.456;2023-04-06T07:44:13;4.10;;;3.70;;
11386;SDS011;5748;53.102;8.456;2023-04-06T07:46:40;3.70;;;3.30;;
11386;SDS011;5748;53.102;8.456;2023-04-06T07:49:07;3.60;;;3.30;;
11386;SDS011;5748;53.102;8.456;2023-04-06T07:51:35;3.90;;;3.50;;
11386;SDS011;5748;53.102;8.456;2023-04-06T07:54:04;3.57;;;3.27;;
11386;SDS011;5748;53.102;8.456;2023-04-06T07:56:31;3.97;;;3.60;;
11386;SDS011;5748;53.102;8.456;2023-04-06T07:58:58;4.13;;;3.73;;
11386;SDS011;5748;53.102;8.456;2023-04-06T08:01:26;4.00;;;3.60;;
11386;SDS011;5748;53.102;8.456;2023-04-06T08:03:54;3.87;;;3.47;;
11386;SDS011;5748;53.102;8.456;2023-04-06T08:06:21;3.70;;;3.40;;
11386;SDS011;5748;53.102;8.456;2023-04-06T08:08:49;3.33;;;3.03;;
11386;SDS011;5748;53.102;8.456;2023-04-06T08:11:17;3.07;;;2.87;;
11386;SDS011;5748;53.102;8.456;2023-04-06T08:13:45;3.60;;;3.30;;
11386;SDS011;5748;53.102;8.456;2023-04-06T08:16:12;2.97;;;2.70;;
11386;SDS011;5748;53.102;8.456;2023-04-06T08:18:40;2.80;;;2.60;;
11386;SDS011;5748;53.102;8.456;2023-04-06T08:21:07;2.67;;;2.47;;
11386;SDS011;5748;53.102;8.456;2023-04-06T08:23:34;3.40;;;3.10;;
11386;SDS011;5748;53.102;8.456;2023-04-06T08:26:01;3.00;;;2.70;;
11386;SDS011;5748;53.102;8.456;2023-04-06T08:28:30;2.67;;;2.47;;
11386;SDS011;5748;53.102;8.456;2023-04-06T08:30:57;2.58;;;2.38;;
11386;SDS011;5748;53.102;8.456;2023-04-06T08:33:24;2.60;;;2.35;;
11386;SDS011;5748;53.102;8.456;2023-04-06T08:35:51;2.60;;;2.40;;
11386;SDS011;5748;53.102;8.456;2023-04-06T08:38:18;2.88;;;2.40;;
11386;SDS011;5748;53.102;8.456;2023-04-06T08:40:45;2.65;;;2.45;;
11386;SDS011;5748;53.102;8.456;2023-04-06T08:43:14;2.95;;;2.50;;
11386;SDS011;5748;53.102;8.456;2023-04-06T08:45:46;2.65;;;2.45;;
11386;SDS011;5748;53.102;8.456;2023-04-06T08:48:13;2.25;;;2.05;;
11386;SDS011;5748;53.102;8.456;2023-04-06T08:50:41;2.83;;;2.63;;
11386;SDS011;5748;53.102;8.456;2023-04-06T08:53:09;2.78;;;2.58;;
11386;SDS011;5748;53.102;8.456;2023-04-06T08:55:38;2.50;;;2.28;;
11386;SDS011;5748;53.102;8.456;2023-04-06T08:58:06;3.38;;;2.90;;
11386;SDS011;5748;53.102;8.456;2023-04-06T09:00:36;2.70;;;2.50;;
11386;SDS011;5748;53.102;8.456;2023-04-06T09:03:06;3.05;;;2.80;;
11386;SDS011;5748;53.102;8.456;2023-04-06T09:05:34;3.45;;;2.45;;
11386;SDS011;5748;53.102;8.456;2023-04-06T09:08:01;2.60;;;2.40;;
11386;SDS011;5748;53.102;8.456;2023-04-06T09:10:29;2.58;;;2.38;;
11386;SDS011;5748;53.102;8.456;2023-04-06T09:13:02;2.90;;;2.70;;
11386;SDS011;5748;53.102;8.456;2023-04-06T09:15:31;2.50;;;2.30;;
11386;SDS011;5748;53.102;8.456;2023-04-06T09:17:58;2.40;;;2.20;;
11386;SDS011;5748;53.102;8.456;2023-04-06T09:20:27;2.90;;;2.70;;
11386;SDS011;5748;53.102;8.456;2023-04-06T09:22:55;3.05;;;2.85;;
11386;SDS011;5748;53.102;8.456;2023-04-06T09:25:22;2.80;;;2.60;;
11386;SDS011;5748;53.102;8.456;2023-04-06T09:27:58;2.85;;;2.65;;
11386;SDS011;5748;53.102;8.456;2023-04-06T09:30:25;2.83;;;2.63;;
11386;SDS011;5748;53.102;8.456;2023-04-06T09:32:53;2.53;;;2.30;;
11386;SDS011;5748;53.102;8.456;2023-04-06T09:35:22;2.67;;;2.47;;
11386;SDS011;5748;53.102;8.456;2023-04-06T09:37:53;2.28;;;2.08;;
11386;SDS011;5748;53.102;8.456;2023-04-06T09:40:20;2.53;;;2.33;;
11386;SDS011;5748;53.102;8.456;2023-04-06T09:42:47;2.72;;;2.53;;
11386;SDS011;5748;53.102;8.456;2023-04-06T09:45:17;2.30;;;2.10;;
11386;SDS011;5748;53.102;8.456;2023-04-06T09:47:45;3.50;;;2.97;;
11386;SDS011;5748;53.102;8.456;2023-04-06T09:50:13;2.80;;;2.60;;
11386;SDS011;5748;53.102;8.456;2023-04-06T09:52:42;2.88;;;2.67;;
11386;SDS011;5748;53.102;8.456;2023-04-06T09:55:17;2.17;;;2.08;;
11386;SDS011;5748;53.102;8.456;2023-04-06T09:57:55;2.92;;;2.50;;
11386;SDS011;5748;53.102;8.456;2023-04-06T10:00:31;2.50;;;2.30;;
11386;SDS011;5748;53.102;8.456;2023-04-06T10:03:07;3.42;;;3.13;;
11386;SDS011;5748;53.102;8.456;2023-04-06T10:05:48;2.55;;;2.35;;
11386;SDS011;5748;53.102;8.456;2023-04-06T10:08:23;3.15;;;2.90;;
11386;SDS011;5748;53.102;8.456;2023-04-06T10:10:54;3.08;;;2.88;;
11386;SDS011;5748;53.102;8.456;2023-04-06T10:13:22;2.67;;;2.47;;
11386;SDS011;5748;53.102;8.456;2023-04-06T10:15:50;2.40;;;2.20;;
11386;SDS011;5748;53.102;8.456;2023-04-06T10:18:18;2.70;;;2.50;;
11386;SDS011;5748;53.102;8.456;2023-04-06T10:20:47;2.53;;;2.33;;
11386;SDS011;5748;53.102;8.456;2023-04-06T10:23:19;2.58;;;2.38;;
11386;SDS011;5748;53.102;8.456;2023-04-06T10:25:52;3.85;;;3.55;;
11386;SDS011;5748;53.102;8.456;2023-04-06T10:28:22;3.30;;;3.00;;
11386;SDS011;5748;53.102;8.456;2023-04-06T10:30:56;3.08;;;2.88;;
11386;SDS011;5748;53.102;8.456;2023-04-06T10:33:24;3.85;;;3.55;;
11386;SDS011;5748;53.102;8.456;2023-04-06T10:35:51;3.08;;;2.88;;
11386;SDS011;5748;53.102;8.456;2023-04-06T10:38:19;3.45;;;3.15;;
11386;SDS011;5748;53.102;8.456;2023-04-06T10:40:47;3.47;;;3.17;;
11386;SDS011;5748;53.102;8.456;2023-04-06T10:43:19;2.85;;;2.65;;
11386;SDS011;5748;53.102;8.456;2023-04-06T10:45:54;2.80;;;2.60;;
11386;SDS011;5748;53.102;8.456;2023-04-06T10:48:22;4.65;;;4.25;;
11386;SDS011;5748;53.102;8.456;2023-04-06T10:50:51;3.15;;;2.92;;
11386;SDS011;5748;53.102;8.456;2023-04-06T10:53:22;3.20;;;3.00;;
11386;SDS011;5748;53.102;8.456;2023-04-06T10:55:51;4.00;;;3.70;;
11386;SDS011;5748;53.102;8.456;2023-04-06T10:58:37;4.28;;;3.88;;
11386;SDS011;5748;53.102;8.456;2023-04-06T11:01:10;3.80;;;3.47;;
11386;SDS011;5748;53.102;8.456;2023-04-06T11:03:42;4.50;;;3.45;;
11386;SDS011;5748;53.102;8.456;2023-04-06T11:06:10;3.80;;;3.50;;
11386;SDS011;5748;53.102;8.456;2023-04-06T11:08:46;4.82;;;4.43;;
11386;SDS011;5748;53.102;8.456;2023-04-06T11:11:16;6.47;;;4.78;;
11386;SDS011;5748;53.102;8.456;2023-04-06T11:13:48;4.35;;;3.85;;
11386;SDS011;5748;53.102;8.456;2023-04-06T11:16:17;4.80;;;4.00;;
11386;SDS011;5748;53.102;8.456;2023-04-06T11:18:50;5.40;;;4.90;;
11386;SDS011;5748;53.102;8.456;2023-04-06T11:21:20;5.07;;;4.65;;
11386;SDS011;5748;53.102;8.456;2023-04-06T11:24:07;6.35;;;4.80;;
11386;SDS011;5748;53.102;8.456;2023-04-06T11:26:39;6.13;;;4.13;;
11386;SDS011;5748;53.102;8.456;2023-04-06T11:29:25;8.30;;;4.88;;
11386;SDS011;5748;53.102;8.456;2023-04-06T11:31:57;4.43;;;4.03;;
11386;SDS011;5748;53.102;8.456;2023-04-06T11:34:27;4.47;;;3.88;;
11386;SDS011;5748;53.102;8.456;2023-04-06T11:36:57;4.57;;;4.18;;
11386;SDS011;5748;53.102;8.456;2023-04-06T11:39:27;5.00;;;4.60;;
11386;SDS011;5748;53.102;8.456;2023-04-06T11:41:57;4.40;;;3.92;;
11386;SDS011;5748;53.102;8.456;2023-04-06T11:44:31;4.60;;;4.20;;
11386;SDS011;5748;53.102;8.456;2023-04-06T11:47:00;4.93;;;3.90;;
11386;SDS011;5748;53.102;8.456;2023-04-06T11:49:28;3.80;;;3.50;;
11386;SDS011;5748;53.102;8.456;2023-04-06T11:51:55;4.38;;;3.97;;
11386;SDS011;5748;53.102;8.456;2023-04-06T11:54:29;5.80;;;4.00;;
11386;SDS011;5748;53.102;8.456;2023-04-06T11:56:58;4.60;;;4.20;;
11386;SDS011;5748;53.102;8.456;2023-04-06T11:59:25;4.05;;;3.65;;
11386;SDS011;5748;53.102;8.456;2023-04-06T12:01:54;4.05;;;3.75;;
11386;SDS011;5748;53.102;8.456;2023-04-06T12:04:21;3.90;;;3.60;;
11386;SDS011;5748;53.102;8.456;2023-04-06T12:06:49;4.30;;;3.97;;
11386;SDS011;5748;53.102;8.456;2023-04-06T12:09:18;10.35;;;4.90;;
11386;SDS011;5748;53.102;8.456;2023-04-06T12:11:46;4.00;;;3.70;;
11386;SDS011;5748;53.102;8.456;2023-04-06T12:14:13;4.30;;;3.95;;
11386;SDS011;5748;53.102;8.456;2023-04-06T12:16:41;3.67;;;3.35;;
11386;SDS011;5748;53.102;8.456;2023-04-06T12:19:10;4.50;;;4.10;;
11386;SDS011;5748;53.102;8.456;2023-04-06T12:21:48;4.78;;;4.38;;
11386;SDS011;5748;53.102;8.456;2023-04-06T12:24:15;4.03;;;3.72;;
11386;SDS011;5748;53.102;8.456;2023-04-06T12:26:42;3.67;;;3.38;;
11386;SDS011;5748;53.102;8.456;2023-04-06T12:29:10;3.70;;;3.40;;
11386;SDS011;5748;53.102;8.456;2023-04-06T12:31:38;4.00;;;3.70;;
11386;SDS011;5748;53.102;8.456;2023-04-06T12:34:25;3.83;;;3.53;;
11386;SDS011;5748;53.102;8.456;2023-04-06T12:37:53;3.63;;;3.33;;
11386;SDS011;5748;53.102;8.456;2023-04-06T12:40:30;3.63;;;3.33;;
11386;SDS011;5748;53.102;8.456;2023-04-06T12:43:34;2.90;;;2.70;;
11386;SDS011;5748;53.102;8.456;2023-04-06T12:49:11;3.85;;;3.55;;
11386;SDS011;5748;53.102;8.456;2023-04-06T12:51:45;4.00;;;3.70;;
11386;SDS011;5748;53.102;8.456;2023-04-06T12:54:32;3.20;;;3.00;;
11386;SDS011;5748;53.102;8.456;2023-04-06T12:57:05;4.35;;;4.05;;
11386;SDS011;5748;53.102;8.456;2023-04-06T12:59:42;3.72;;;3.42;;
11386;SDS011;5748;53.102;8.456;2023-04-06T13:02:40;3.58;;;3.28;;
11386;SDS011;5748;53.102;8.456;2023-04-06T13:05:11;4.13;;;3.72;;
11386;SDS011;5748;53.102;8.456;2023-04-06T13:07:46;3.83;;;3.53;;
11386;SDS011;5748;53.102;8.456;2023-04-06T13:10:30;3.80;;;3.50;;
11386;SDS011;5748;53.102;8.456;2023-04-06T13:16:14;3.33;;;3.13;;
11386;SDS011;5748;53.102;8.456;2023-04-06T13:19:07;3.33;;;3.03;;
11386;SDS011;5748;53.102;8.456;2023-04-06T13:21:46;4.10;;;3.70;;
11386;SDS011;5748;53.102;8.456;2023-04-06T13:24:23;3.70;;;3.40;;
11386;SDS011;5748;53.102;8.456;2023-04-06T13:26:50;4.25;;;3.88;;
11386;SDS011;5748;53.102;8.456;2023-04-06T13:29:17;3.70;;;3.40;;
11386;SDS011;5748;53.102;8.456;2023-04-06T13:31:58;3.63;;;3.33;;
11386;SDS011;5748;53.102;8.456;2023-04-06T13:34:25;3.45;;;3.20;;
11386;SDS011;5748;53.102;8.456;2023-04-06T13:36:52;2.85;;;2.65;;
11386;SDS011;5748;53.102;8.456;2023-04-06T13:39:20;3.40;;;3.10;;
11386;SDS011;5748;53.102;8.456;2023-04-06T13:41:48;4.32;;;3.92;;
11386;SDS011;5748;53.102;8.456;2023-04-06T13:44:15;4.30;;;3.95;;
11386;SDS011;5748;53.102;8.456;2023-04-06T13:46:42;3.83;;;3.50;;
11386;SDS011;5748;53.102;8.456;2023-04-06T13:49:09;4.45;;;4.05;;
11386;SDS011;5748;53.102;8.456;2023-04-06T13:51:36;3.60;;;3.30;;
11386;SDS011;5748;53.102;8.456;2023-04-06T13:54:04;5.03;;;4.63;;
11386;SDS011;5748;53.102;8.456;2023-04-06T13:56:31;4.93;;;3.72;;
11386;SDS011;5748;53.102;8.456;2023-04-06T13:59:00;3.40;;;3.10;;
11386;SDS011;5748;53.102;8.456;2023-04-06T14:01:27;3.47;;;3.17;;
11386;SDS011;5748;53.102;8.456;2023-04-06T14:03:54;3.53;;;3.10;;
11386;SDS011;5748;53.102;8.456;2023-04-06T14:06:21;3.13;;;2.92;;
11386;SDS011;5748;53.102;8.456;2023-04-06T14:08:48;3.15;;;2.85;;
11386;SDS011;5748;53.102;8.456;2023-04-06T14:11:15;3.60;;;3.30;;
11386;SDS011;5748;53.102;8.456;2023-04-06T14:13:42;3.72;;;3.38;;
11386;SDS011;5748;53.102;8.456;2023-04-06T14:16:10;3.45;;;3.15;;
11386;SDS011;5748;53.102;8.456;2023-04-06T14:18:37;3.28;;;3.00;;
11386;SDS011;5748;53.102;8.456;2023-04-06T14:21:05;3.78;;;3.47;;
11386;SDS011;5748;53.102;8.456;2023-04-06T14:23:32;3.78;;;3.47;;
11386;SDS011;5748;53.102;8.456;2023-04-06T14:26:00;4.18;;;3.78;;
11386;SDS011;5748;53.102;8.456;2023-04-06T14:28:29;3.72;;;3.42;;
11386;SDS011;5748;53.102;8.456;2023-04-06T14:30:56;3.92;;;3.63;;
11386;SDS011;5748;53.102;8.456;2023-04-06T14:33:26;3.40;;;3.10;;
11386;SDS011;5748;53.102;8.456;2023-04-06T14:35:53;3.28;;;2.97;;
11386;SDS011;5748;53.102;8.456;2023-04-06T14:38:21;3.00;;;2.80;;
11386;SDS011;5748;53.102;8.456;2023-04-06T14:40:48;3.63;;;3.33;;
11386;SDS011;5748;53.102;8.456;2023-04-06T14:43:16;3.80;;;3.50;;
11386;SDS011;5748;53.102;8.456;2023-04-06T14:45:44;4.00;;;3.60;;
11386;SDS011;5748;53.102;8.456;2023-04-06T14:48:11;3.63;;;3.33;;
11386;SDS011;5748;53.102;8.456;2023-04-06T14:50:52;3.85;;;3.55;;
11386;SDS011;5748;53.102;8.456;2023-04-06T14:53:19;5.10;;;4.63;;
11386;SDS011;5748;53.102;8.456;2023-04-06T14:55:47;4.60;;;4.20;;
11386;SDS011;5748;53.102;8.456;2023-04-06T14:58:16;3.92;;;3.63;;
11386;SDS011;5748;53.102;8.456;2023-04-06T15:00:43;4.78;;;4.28;;
11386;SDS011;5748;53.102;8.456;2023-04-06T15:03:10;4.13;;;3.72;;
11386;SDS011;5748;53.102;8.456;2023-04-06T15:05:37;4.07;;;3.78;;
11386;SDS011;5748;53.102;8.456;2023-04-06T15:08:06;3.65;;;3.35;;
11386;SDS011;5748;53.102;8.456;2023-04-06T15:10:34;3.28;;;3.08;;
11386;SDS011;5748;53.102;8.456;2023-04-06T15:13:01;3.60;;;3.30;;
11386;SDS011;5748;53.102;8.456;2023-04-06T15:15:28;3.58;;;3.28;;
11386;SDS011;5748;53.102;8.456;2023-04-06T15:17:56;4.28;;;3.80;;
11386;SDS011;5748;53.102;8.456;2023-04-06T15:20:23;4.00;;;3.60;;
11386;SDS011;5748;53.102;8.456;2023-04-06T15:22:51;3.80;;;3.50;;
11386;SDS011;5748;53.102;8.456;2023-04-06T15:25:19;3.25;;;3.03;;
11386;SDS011;5748;53.102;8.456;2023-04-06T15:27:46;4.57;;;3.92;;
11386;SDS011;5748;53.102;8.456;2023-04-06T15:30:13;4.28;;;3.92;;